Time;durP1;ratioP1;P1;durP2;ratioP2;P2;SDS_P1;SDS_P2;PMS_P1;PMS_P2;Temp;Humidity;BMP_temperature;BMP_pressure;BME280_temperature;BME280_humidity;BME280_pressure;Samples;Min_cycle;Max_cycle;Signal;HPM_P1;HPM_P2
2022/03/14 00:01:30;;;;;;;;;;;;;;;;;;4912771;29;20021;-75
2022/03/14 00:03:58;;;;;;;;;;;;;;;;;;4914453;29;19919;-77
2022/03/14 00:06:23;;;;;;;;;;;;;;;;;;4914709;29;20474;-76
2022/03/14 00:08:48;;;;;;;;;;;;;;;;;;4912801;29;20010;-74
2022/03/14 00:11:15;;;;;;;;;;;;;;;;;;4912472;29;20456;-74
2022/03/14 00:13:46;;;;;;;;;;;;;;;;;;4912538;29;19922;-75
2022/03/14 00:16:28;;;;;;;;;;;;;;;;;;4913014;29;19915;-74
2022/03/14 00:18:55;;;;;;;;;;;;;;;;;;4913405;29;19945;-75
2022/03/14 00:21:25;;;;;;;;;;;;;;;;;;4913317;29;19915;-74
2022/03/14 00:23:51;;;;;;;;;;;;;;;;;;4914235;29;20406;-74
2022/03/14 00:26:17;;;;;;;;;;;;;;;;;;4912681;29;19919;-75
2022/03/14 00:28:42;;;;;;;;;;;;;;;;;;4913972;29;20081;-75
2022/03/14 00:31:11;;;;;;;;;;;;;;;;;;4913367;29;20252;-75
2022/03/14 00:33:39;;;;;;;;;;;;;;;;;;4914559;29;20375;-76
2022/03/14 00:36:05;;;;;;;;;;;;;;;;;;4912181;29;19943;-76
2022/03/14 00:38:30;;;;;;;;;;;;;;;;;;4914070;29;19919;-75
2022/03/14 00:40:56;;;;;;;;;;;;;;;;;;4912737;29;19922;-76
2022/03/14 00:43:21;;;;;;;;;;;;;;;;;;4914037;29;20006;-75
2022/03/14 00:45:47;;;;;;;;;;;;;;;;;;4920076;29;19930;-76
2022/03/14 00:48:12;;;;;;;;;;;;;;;;;;4931471;29;20022;-75
2022/03/14 00:50:38;;;;;;;;;;;;;;;;;;4931315;29;19915;-75
2022/03/14 00:53:03;;;;;;;;;;;;;;;;;;4932879;29;19930;-76
2022/03/14 00:55:30;;;;;;;;;;;;;;;;;;4932548;29;19970;-75
2022/03/14 00:57:55;;;;;;;;;;;;;;;;;;4915643;29;19922;-74
2022/03/14 01:00:22;;;;;;;;;;;;;;;;;;4932680;29;19922;-75
2022/03/14 01:02:50;;;;;;;;;;;;;;;;;;4933352;29;19922;-76
2022/03/14 01:05:16;;;;;;;;;;;;;;;;;;4931597;29;20013;-75
2022/03/14 01:07:41;;;;;;;;;;;;;;;;;;4931573;29;19997;-75
2022/03/14 01:10:06;;;;;;;;;;;;;;;;;;4931070;29;20090;-75
2022/03/14 01:12:32;;;;;;;;;;;;;;;;;;4932979;29;19915;-75
2022/03/14 01:14:57;;;;;;;;;;;;;;;;;;4931497;29;20363;-75
2022/03/14 01:17:23;;;;;;;;;;;;;;;;;;4930767;29;19918;-75
2022/03/14 01:19:48;;;;;;;;;;;;;;;;;;4931642;29;19959;-76
2022/03/14 01:22:14;;;;;;;;;;;;;;;;;;4931347;29;19925;-75
2022/03/14 01:24:39;;;;;;;;;;;;;;;;;;4931474;29;20280;-75
2022/03/14 01:27:05;;;;;;;;;;;;;;;;;;4930527;29;19914;-75
2022/03/14 01:29:31;;;;;;;;;;;;;;;;;;4931268;29;20398;-74
2022/03/14 01:31:57;;;;;;;;;;;;;;;;;;4930619;29;19962;-74
2022/03/14 01:34:22;;;;;;;;;;;;;;;;;;4932018;29;19922;-74
2022/03/14 01:36:47;;;;;;;;;;;;;;;;;;4931161;29;20291;-75
2022/03/14 01:39:13;;;;;;;;;;;;;;;;;;4932157;29;19938;-75
2022/03/14 01:41:38;;;;;;;;;;;;;;;;;;4931756;29;19914;-76
2022/03/14 01:44:04;;;;;;;;;;;;;;;;;;4931974;29;19999;-75
2022/03/14 01:46:29;;;;;;;;;;;;;;;;;;4931573;29;19978;-76
2022/03/14 01:48:56;;;;;;;;;;;;;;;;;;4935512;29;20009;-76
2022/03/14 01:51:23;;;;;;;;;;;;;;;;;;4934097;29;19918;-74
2022/03/14 01:53:49;;;;;;;;;;;;;;;;;;4935553;29;19922;-76
2022/03/14 01:56:14;;;;;;;;;;;;;;;;;;4935141;29;20001;-75
2022/03/14 01:58:41;;;;;;;;;;;;;;;;;;4934118;29;19915;-74
2022/03/14 02:01:06;;;;;;;;;;;;;;;;;;4934412;29;20384;-74
2022/03/14 02:03:31;;;;;;;;;;;;;;;;;;4934172;29;19914;-74
2022/03/14 02:05:57;;;;;;;;;;;;;;;;;;4935461;29;19915;-75
2022/03/14 02:08:22;;;;;;;;;;;;;;;;;;4935247;29;19922;-75
2022/03/14 02:10:48;;;;;;;;;;;;;;;;;;4935293;29;19922;-75
2022/03/14 02:13:13;;;;;;;;;;;;;;;;;;4933497;29;19925;-74
2022/03/14 02:15:39;;;;;;;;;;;;;;;;;;4935201;29;19996;-75
2022/03/14 02:18:05;;;;;;;;;;;;;;;;;;4934738;29;19921;-74
2022/03/14 02:20:31;;;;;;;;;;;;;;;;;;4934678;29;19915;-74
2022/03/14 02:22:56;;;;;;;;;;;;;;;;;;4932984;29;19937;-75
2022/03/14 02:25:22;;;;;;;;;;;;;;;;;;4933071;29;19919;-74
2022/03/14 02:27:48;;;;;;;;;;;;;;;;;;4934580;29;20348;-75
2022/03/14 02:30:13;;;;;;;;;;;;;;;;;;4934425;29;19923;-75
2022/03/14 02:32:41;;;;;;;;;;;;;;;;;;4949234;28;19970;-75
2022/03/14 02:35:07;;;;;;;;;;;;;;;;;;4932961;29;19923;-75
2022/03/14 02:37:32;;;;;;;;;;;;;;;;;;4933613;29;20089;-76
2022/03/14 02:39:58;;;;;;;;;;;;;;;;;;4935201;29;20022;-75
2022/03/14 02:42:23;;;;;;;;;;;;;;;;;;4933046;29;20394;-75
2022/03/14 02:44:48;;;;;;;;;;;;;;;;;;4933558;29;20315;-75
2022/03/14 02:47:14;;;;;;;;;;;;;;;;;;4915045;29;20398;-75
2022/03/14 02:49:39;;;;;;;;;;;;;;;;;;4915748;29;19922;-74
2022/03/14 02:52:05;;;;;;;;;;;;;;;;;;4913998;29;20372;-76
2022/03/14 02:54:30;;;;;;;;;;;;;;;;;;4913994;29;19946;-75
2022/03/14 02:56:57;;;;;;;;;;;;;;;;;;4914112;29;19947;-75
2022/03/14 02:59:22;;;;;;;;;;;;;;;;;;4912635;29;19975;-75
2022/03/14 03:01:48;;;;;;;;;;;;;;;;;;4915366;29;19915;-75
2022/03/14 03:04:14;;;;;;;;;;;;;;;;;;4915154;29;19930;-75
2022/03/14 03:06:39;;;;;;;;;;;;;;;;;;4915602;29;19922;-75
2022/03/14 03:09:05;;;;;;;;;;;;;;;;;;4914416;29;19915;-75
2022/03/14 03:11:33;;;;;;;;;;;;;;;;;;4913921;29;19915;-75
2022/03/14 03:13:59;;;;;;;;;;;;;;;;;;4915138;29;19922;-74
2022/03/14 03:16:25;;;;;;;;;;;;;;;;;;4915004;29;20010;-76
2022/03/14 03:18:50;;;;;;;;;;;;;;;;;;4915644;29;20035;-75
2022/03/14 03:21:16;;;;;;;;;;;;;;;;;;4914183;29;19915;-75
2022/03/14 03:23:42;;;;;;;;;;;;;;;;;;4914102;29;19947;-76
2022/03/14 03:26:07;;;;;;;;;;;;;;;;;;4915774;29;20399;-77
2022/03/14 03:28:35;;;;;;;;;;;;;;;;;;4915207;29;20192;-74
2022/03/14 03:31:11;;;;;;;;;;;;;;;;;;4914199;29;19971;-74
2022/03/14 03:33:37;;;;;;;;;;;;;;;;;;4912672;29;20342;-75
2022/03/14 03:36:03;;;;;;;;;;;;;;;;;;4912760;29;19923;-74
2022/03/14 03:38:28;;;;;;;;;;;;;;;;;;4912844;29;20559;-74
2022/03/14 03:40:54;;;;;;;;;;;;;;;;;;4914596;29;20023;-74
2022/03/14 03:43:19;;;;;;;;;;;;;;;;;;4914116;29;20492;-74
2022/03/14 03:45:45;;;;;;;;;;;;;;;;;;4921323;29;19958;-74
2022/03/14 03:48:10;;;;;;;;;;;;;;;;;;4931288;29;19986;-74
2022/03/14 03:50:35;;;;;;;;;;;;;;;;;;4933297;29;19921;-74
2022/03/14 03:53:01;;;;;;;;;;;;;;;;;;4933073;29;20441;-74
2022/03/14 03:55:26;;;;;;;;;;;;;;;;;;4931694;29;20322;-75
2022/03/14 03:57:53;;;;;;;;;;;;;;;;;;4931504;29;19915;-74
2022/03/14 04:00:19;;;;;;;;;;;;;;;;;;4932516;29;19925;-75
2022/03/14 04:02:46;;;;;;;;;;;;;;;;;;4931247;29;19982;-74
2022/03/14 04:05:16;;;;;;;;;;;;;;;;;;4931050;29;19919;-74
2022/03/14 04:07:43;;;;;;;;;;;;;;;;;;4933531;29;20026;-74
2022/03/14 04:10:12;;;;;;;;;;;;;;;;;;4932892;29;20062;-75
2022/03/14 04:12:39;;;;;;;;;;;;;;;;;;4932230;29;20390;-75
2022/03/14 04:15:09;;;;;;;;;;;;;;;;;;4934076;29;19922;-74
2022/03/14 04:17:38;;;;;;;;;;;;;;;;;;4933221;29;19922;-75
2022/03/14 04:20:04;;;;;;;;;;;;;;;;;;4931696;29;20393;-75
2022/03/14 04:22:37;;;;;;;;;;;;;;;;;;4932428;29;19918;-77
2022/03/14 04:25:08;;;;;;;;;;;;;;;;;;4935547;29;19919;-76
2022/03/14 04:27:38;;;;;;;;;;;;;;;;;;4934132;29;19926;-76
2022/03/14 04:30:04;;;;;;;;;;;;;;;;;;4933432;29;19924;-75
2022/03/14 04:32:29;;;;;;;;;;;;;;;;;;4936647;29;19914;-75
2022/03/14 04:34:56;;;;;;;;;;;;;;;;;;4937518;29;19933;-76
2022/03/14 04:37:22;;;;;;;;;;;;;;;;;;4934004;29;20342;-75
2022/03/14 04:39:47;;;;;;;;;;;;;;;;;;4933069;29;19923;-74
2022/03/14 04:42:15;;;;;;;;;;;;;;;;;;4932964;29;19923;-76
2022/03/14 04:44:42;;;;;;;;;;;;;;;;;;4933221;29;19935;-75
2022/03/14 04:47:08;;;;;;;;;;;;;;;;;;4913225;29;20427;-75
2022/03/14 04:49:33;;;;;;;;;;;;;;;;;;4913943;29;20442;-75
2022/03/14 04:51:59;;;;;;;;;;;;;;;;;;4913329;29;20302;-75
2022/03/14 04:54:25;;;;;;;;;;;;;;;;;;4913048;29;19919;-76
2022/03/14 04:56:50;;;;;;;;;;;;;;;;;;4913019;29;19970;-75
2022/03/14 04:59:16;;;;;;;;;;;;;;;;;;4914358;29;20287;-75
2022/03/14 05:01:42;;;;;;;;;;;;;;;;;;4914156;29;19926;-76
2022/03/14 05:04:07;;;;;;;;;;;;;;;;;;4912722;29;20379;-75
2022/03/14 05:06:33;;;;;;;;;;;;;;;;;;4912279;29;19923;-75
2022/03/14 05:08:58;;;;;;;;;;;;;;;;;;4913641;29;19966;-74
2022/03/14 05:11:24;;;;;;;;;;;;;;;;;;4912426;29;19919;-75
2022/03/14 05:13:49;;;;;;;;;;;;;;;;;;4913634;29;20337;-75
2022/03/14 05:16:15;;;;;;;;;;;;;;;;;;4913596;29;20299;-75
2022/03/14 05:18:40;;;;;;;;;;;;;;;;;;4912508;29;19922;-76
2022/03/14 05:21:06;;;;;;;;;;;;;;;;;;4914314;29;19919;-75
2022/03/14 05:23:31;;;;;;;;;;;;;;;;;;4915508;29;20044;-74
2022/03/14 05:25:57;;;;;;;;;;;;;;;;;;4915340;29;20022;-75
2022/03/14 05:28:22;;;;;;;;;;;;;;;;;;4915245;29;20037;-77
2022/03/14 05:30:48;;;;;;;;;;;;;;;;;;4915216;29;19974;-75
2022/03/14 05:33:13;;;;;;;;;;;;;;;;;;4916659;29;19923;-76
2022/03/14 05:35:39;;;;;;;;;;;;;;;;;;4916663;29;20259;-75
2022/03/14 05:38:04;;;;;;;;;;;;;;;;;;4915546;29;19915;-76
2022/03/14 05:40:30;;;;;;;;;;;;;;;;;;4916155;29;20283;-75
2022/03/14 05:42:56;;;;;;;;;;;;;;;;;;4915692;29;19916;-75
2022/03/14 05:45:22;;;;;;;;;;;;;;;;;;4914848;29;19919;-75
2022/03/14 05:47:47;;;;;;;;;;;;;;;;;;4915133;29;20343;-75
2022/03/14 05:50:13;;;;;;;;;;;;;;;;;;4916333;29;19915;-75
2022/03/14 05:52:39;;;;;;;;;;;;;;;;;;4916297;29;20002;-75
2022/03/14 05:55:08;;;;;;;;;;;;;;;;;;4915042;29;20272;-74
2022/03/14 05:57:34;;;;;;;;;;;;;;;;;;4916026;29;19927;-75
2022/03/14 06:00:00;;;;;;;;;;;;;;;;;;4916095;29;19915;-75
2022/03/14 06:02:25;;;;;;;;;;;;;;;;;;4914944;29;19921;-76
2022/03/14 06:04:52;;;;;;;;;;;;;;;;;;4916607;29;20349;-76
2022/03/14 06:07:21;;;;;;;;;;;;;;;;;;4921979;29;19982;-75
2022/03/14 06:09:50;;;;;;;;;;;;;;;;;;4925043;29;20003;-75
2022/03/14 06:12:29;;;;;;;;;;;;;;;;;;4933248;29;19919;-75
2022/03/14 06:14:55;;;;;;;;;;;;;;;;;;4924934;29;19926;-77
2022/03/14 06:17:21;;;;;;;;;;;;;;;;;;4943559;29;19915;-75
2022/03/14 06:19:47;;;;;;;;;;;;;;;;;;4934003;29;19929;-76
2022/03/14 06:22:13;;;;;;;;;;;;;;;;;;4935550;29;19929;-75
2022/03/14 06:24:39;;;;;;;;;;;;;;;;;;4933526;29;19919;-76
2022/03/14 06:27:04;;;;;;;;;;;;;;;;;;4933455;29;19977;-75
2022/03/14 06:29:30;;;;;;;;;;;;;;;;;;4935742;29;20379;-76
2022/03/14 06:31:56;;;;;;;;;;;;;;;;;;4944599;28;19929;-75
2022/03/14 06:34:21;;;;;;;;;;;;;;;;;;4934756;29;19986;-76
2022/03/14 06:36:47;;;;;;;;;;;;;;;;;;4934450;29;19923;-75
2022/03/14 06:39:12;;;;;;;;;;;;;;;;;;4934667;29;19919;-75
2022/03/14 06:41:38;;;;;;;;;;;;;;;;;;4934605;29;19999;-76
2022/03/14 06:44:04;;;;;;;;;;;;;;;;;;4932293;29;20066;-75
2022/03/14 06:46:29;;;;;;;;;;;;;;;;;;4952882;29;20012;-75
2022/03/14 06:48:55;;;;;;;;;;;;;;;;;;4953982;28;19914;-76
2022/03/14 06:51:21;;;;;;;;;;;;;;;;;;4933424;29;19974;-75
2022/03/14 06:53:47;;;;;;;;;;;;;;;;;;4929444;29;20017;-75
2022/03/14 06:56:17;;;;;;;;;;;;;;;;;;4934168;29;20009;-76
2022/03/14 06:58:43;;;;;;;;;;;;;;;;;;4935122;29;19925;-74
2022/03/14 07:01:08;;;;;;;;;;;;;;;;;;4924777;29;20239;-76
2022/03/14 07:03:34;;;;;;;;;;;;;;;;;;4937317;29;19926;-76
2022/03/14 07:05:59;;;;;;;;;;;;;;;;;;4933150;29;19927;-75
2022/03/14 07:08:25;;;;;;;;;;;;;;;;;;4922358;29;20257;-77
2022/03/14 07:10:50;;;;;;;;;;;;;;;;;;4935017;29;19940;-75
2022/03/14 07:13:15;;;;;;;;;;;;;;;;;;4930149;29;19926;-75
2022/03/14 07:15:41;;;;;;;;;;;;;;;;;;4931080;29;19931;-76
2022/03/14 07:18:07;;;;;;;;;;;;;;;;;;4924295;29;20370;-76
2022/03/14 07:20:34;;;;;;;;;;;;;;;;;;4924916;29;19927;-78
2022/03/14 07:23:01;;;;;;;;;;;;;;;;;;4921977;29;19925;-77
2022/03/14 07:25:27;;;;;;;;;;;;;;;;;;4931629;29;19994;-74
2022/03/14 07:27:53;;;;;;;;;;;;;;;;;;4926075;29;19923;-75
2022/03/14 07:30:20;;;;;;;;;;;;;;;;;;4922019;29;19931;-75
2022/03/14 07:32:46;;;;;;;;;;;;;;;;;;4929564;29;20257;-75
2022/03/14 07:35:12;;;;;;;;;;;;;;;;;;4928511;29;19931;-76
2022/03/14 07:37:38;;;;;;;;;;;;;;;;;;4930509;29;19919;-73
2022/03/14 07:40:03;;;;;;;;;;;;;;;;;;4935521;29;19929;-75
2022/03/14 07:42:29;;;;;;;;;;;;;;;;;;4932956;29;19914;-75
2022/03/14 07:44:54;;;;;;;;;;;;;;;;;;4926444;29;20853;-76
2022/03/14 07:47:19;;;;;;;;;;;;;;;;;;4933346;28;20380;-74
2022/03/14 07:49:46;;;;;;;;;;;;;;;;;;4922996;29;20385;-75
2022/03/14 07:52:12;;;;;;;;;;;;;;;;;;4928604;29;19923;-74
2022/03/14 07:54:38;;;;;;;;;;;;;;;;;;4928484;29;19919;-74
2022/03/14 07:57:04;;;;;;;;;;;;;;;;;;4925040;29;20441;-75
2022/03/14 07:59:29;;;;;;;;;;;;;;;;;;4932359;29;20395;-75
2022/03/14 08:01:54;;;;;;;;;;;;;;;;;;4925958;29;19923;-75
2022/03/14 08:04:20;;;;;;;;;;;;;;;;;;4928470;29;19923;-74
2022/03/14 08:06:47;;;;;;;;;;;;;;;;;;4919153;29;19945;-77
2022/03/14 08:09:12;;;;;;;;;;;;;;;;;;4930292;29;19996;-76
2022/03/14 08:11:40;;;;;;;;;;;;;;;;;;4924550;29;19918;-78
2022/03/14 08:14:06;;;;;;;;;;;;;;;;;;4927350;28;19927;-75
2022/03/14 08:16:31;;;;;;;;;;;;;;;;;;4927251;29;20402;-76
2022/03/14 08:18:57;;;;;;;;;;;;;;;;;;4936534;28;20430;-76
2022/03/14 08:21:23;;;;;;;;;;;;;;;;;;4928926;29;19925;-77
2022/03/14 08:23:50;;;;;;;;;;;;;;;;;;4928983;29;20035;-76
2022/03/14 08:26:17;;;;;;;;;;;;;;;;;;4932252;29;19922;-76
2022/03/14 08:28:43;;;;;;;;;;;;;;;;;;4930790;29;19919;-77
2022/03/14 08:31:09;;;;;;;;;;;;;;;;;;4933036;29;20017;-77
2022/03/14 08:33:39;;;;;;;;;;;;;;;;;;4927951;29;19922;-76
2022/03/14 08:36:05;;;;;;;;;;;;;;;;;;4928792;28;19962;-74
2022/03/14 08:38:31;;;;;;;;;;;;;;;;;;4946143;28;20002;-76
2022/03/14 08:40:57;;;;;;;;;;;;;;;;;;4923884;29;20740;-78
2022/03/14 08:43:23;;;;;;;;;;;;;;;;;;4942437;28;20306;-75
2022/03/14 08:45:48;;;;;;;;;;;;;;;;;;4935680;29;19941;-75
2022/03/14 08:48:14;;;;;;;;;;;;;;;;;;4935088;29;20025;-75
2022/03/14 08:50:41;;;;;;;;;;;;;;;;;;4926837;29;20025;-76
2022/03/14 08:53:07;;;;;;;;;;;;;;;;;;4931765;29;19922;-77
2022/03/14 08:55:32;;;;;;;;;;;;;;;;;;4925161;29;20385;-78
2022/03/14 08:57:58;;;;;;;;;;;;;;;;;;4931941;28;19962;-75
2022/03/14 09:00:24;;;;;;;;;;;;;;;;;;4937179;29;20365;-75
2022/03/14 09:02:50;;;;;;;;;;;;;;;;;;4932379;29;19955;-74
2022/03/14 09:05:16;;;;;;;;;;;;;;;;;;4916427;29;20023;-76
2022/03/14 09:07:42;;;;;;;;;;;;;;;;;;4941731;29;19914;-77
2022/03/14 09:10:09;;;;;;;;;;;;;;;;;;4939761;29;19923;-77
2022/03/14 09:12:38;;;;;;;;;;;;;;;;;;4932996;29;19934;-75
2022/03/14 09:15:05;;;;;;;;;;;;;;;;;;4941732;28;20021;-77
2022/03/14 09:17:32;;;;;;;;;;;;;;;;;;4934696;29;20042;-77
2022/03/14 09:19:58;;;;;;;;;;;;;;;;;;4935891;29;19990;-78
2022/03/14 09:22:24;;;;;;;;;;;;;;;;;;4937854;29;19927;-75
2022/03/14 09:24:52;;;;;;;;;;;;;;;;;;4947645;28;19951;-76
2022/03/14 09:27:17;;;;;;;;;;;;;;;;;;4938378;28;19923;-76
2022/03/14 09:29:43;;;;;;;;;;;;;;;;;;4930389;28;19927;-76
2022/03/14 09:32:09;;;;;;;;;;;;;;;;;;4929596;28;19930;-76
2022/03/14 09:34:37;;;;;;;;;;;;;;;;;;4933609;29;19922;-77
2022/03/14 09:37:04;;;;;;;;;;;;;;;;;;4936956;29;19923;-75
2022/03/14 09:39:29;;;;;;;;;;;;;;;;;;4939726;28;19974;-75
2022/03/14 09:41:56;;;;;;;;;;;;;;;;;;4933021;28;19922;-75
2022/03/14 09:44:26;;;;;;;;;;;;;;;;;;4930375;28;19933;-77
2022/03/14 09:46:54;;;;;;;;;;;;;;;;;;4930502;29;19978;-75
2022/03/14 09:49:20;;;;;;;;;;;;;;;;;;4934460;28;19931;-78
2022/03/14 09:51:46;;;;;;;;;;;;;;;;;;4931386;29;19933;-76
2022/03/14 09:54:12;;;;;;;;;;;;;;;;;;4949197;28;19983;-77
2022/03/14 09:56:41;;;;;;;;;;;;;;;;;;4940521;29;19936;-76
2022/03/14 09:59:08;;;;;;;;;;;;;;;;;;4940478;28;19969;-77
2022/03/14 10:01:35;;;;;;;;;;;;;;;;;;4932664;29;19927;-74
2022/03/14 10:04:01;;;;;;;;;;;;;;;;;;4930016;29;20033;-75
2022/03/14 10:06:26;;;;;;;;;;;;;;;;;;4937313;29;20029;-76
2022/03/14 10:08:52;;;;;;;;;;;;;;;;;;4933173;29;20342;-77
2022/03/14 10:11:17;;;;;;;;;;;;;;;;;;4936037;29;19933;-77
2022/03/14 10:13:43;;;;;;;;;;;;;;;;;;4936393;29;19926;-76
2022/03/14 10:16:08;;;;;;;;;;;;;;;;;;4935801;29;19966;-77
2022/03/14 10:18:51;;;;;;;;;;;;;;;;;;4931780;29;20412;-77
2022/03/14 10:21:27;;;;;;;;;;;;;;;;;;4933050;29;19948;-78
2022/03/14 10:23:53;;;;;;;;;;;;;;;;;;4928873;29;19938;-77
2022/03/14 10:26:20;;;;;;;;;;;;;;;;;;4931670;29;19926;-78
2022/03/14 10:28:49;;;;;;;;;;;;;;;;;;4931603;29;20268;-76
2022/03/14 10:31:14;;;;;;;;;;;;;;;;;;4932867;29;20331;-75
2022/03/14 10:33:40;;;;;;;;;;;;;;;;;;4931214;29;20673;-77
2022/03/14 10:36:06;;;;;;;;;;;;;;;;;;4949449;28;19919;-78
2022/03/14 10:38:35;;;;;;;;;;;;;;;;;;4940039;29;19925;-77
2022/03/14 10:41:11;;;;;;;;;;;;;;;;;;4930576;29;19926;-76
2022/03/14 10:43:38;;;;;;;;;;;;;;;;;;4934011;29;19922;-73
2022/03/14 10:46:04;;;;;;;;;;;;;;;;;;4929058;29;20279;-76
2022/03/14 10:48:33;;;;;;;;;;;;;;;;;;4930333;29;19922;-77
2022/03/14 10:51:01;;;;;;;;;;;;;;;;;;4930308;29;20406;-77
2022/03/14 10:53:28;;;;;;;;;;;;;;;;;;4952298;28;19918;-78
2022/03/14 10:55:57;;;;;;;;;;;;;;;;;;4941607;28;19938;-77
2022/03/14 10:58:27;;;;;;;;;;;;;;;;;;4932913;28;19942;-77
2022/03/14 11:00:53;;;;;;;;;;;;;;;;;;4938108;29;20319;-75
2022/03/14 11:03:26;;;;;;;;;;;;;;;;;;4932362;29;20026;-76
2022/03/14 11:05:54;;;;;;;;;;;;;;;;;;4929023;29;19982;-76
2022/03/14 11:08:33;;;;;;;;;;;;;;;;;;4926387;29;20029;-77
2022/03/14 11:11:01;;;;;;;;;;;;;;;;;;4938269;29;19990;-76
2022/03/14 11:13:26;;;;;;;;;;;;;;;;;;4955837;28;20089;-77
2022/03/14 11:15:53;;;;;;;;;;;;;;;;;;4927555;29;19938;-77
2022/03/14 11:18:21;;;;;;;;;;;;;;;;;;4931762;29;19926;-77
2022/03/14 11:20:47;;;;;;;;;;;;;;;;;;4940284;29;19930;-77
2022/03/14 11:23:15;;;;;;;;;;;;;;;;;;4934777;28;20593;-76
2022/03/14 11:25:44;;;;;;;;;;;;;;;;;;4938173;28;20050;-77
2022/03/14 11:28:14;;;;;;;;;;;;;;;;;;4937593;29;19978;-78
2022/03/14 11:30:40;;;;;;;;;;;;;;;;;;4933821;29;19931;-77
2022/03/14 11:33:05;;;;;;;;;;;;;;;;;;4937048;29;19919;-77
2022/03/14 11:35:31;;;;;;;;;;;;;;;;;;4937795;28;19926;-77
2022/03/14 11:37:56;;;;;;;;;;;;;;;;;;4954846;28;20510;-76
2022/03/14 11:40:36;;;;;;;;;;;;;;;;;;5118079;27;19917;-77
2022/03/14 11:43:01;;;;;;;;;;;;;;;;;;5080529;28;20287;-75
2022/03/14 11:45:27;;;;;;;;;;;;;;;;;;5076960;28;20348;-77
2022/03/14 11:47:54;;;;;;;;;;;;;;;;;;5069425;28;19920;-76
2022/03/14 11:50:22;;;;;;;;;;;;;;;;;;5077812;28;19998;-72
2022/03/14 11:52:50;;;;;;;;;;;;;;;;;;5081093;28;19920;-77
2022/03/14 11:55:20;;;;;;;;;;;;;;;;;;5081526;28;19924;-75
2022/03/14 11:57:47;;;;;;;;;;;;;;;;;;5077549;28;19969;-76
2022/03/14 12:00:27;;;;;;;;;;;;;;;;;;5073563;28;19928;-75
2022/03/14 12:02:52;;;;;;;;;;;;;;;;;;5095141;28;19928;-75
2022/03/14 12:05:21;;;;;;;;;;;;;;;;;;5076022;28;20387;-76
2022/03/14 12:07:49;;;;;;;;;;;;;;;;;;5075165;28;20003;-75
2022/03/14 12:10:25;;;;;;;;;;;;;;;;;;5073629;28;19924;-76
2022/03/14 12:12:53;;;;;;;;;;;;;;;;;;5091108;28;20352;-76
2022/03/14 12:15:41;;;;;;;;;;;;;;;;;;5077602;28;19928;-75
2022/03/14 12:18:28;;;;;;;;;;;;;;;;;;5077757;28;19920;-76
2022/03/14 12:20:54;;;;;;;;;;;;;;;;;;5074111;28;19920;-75
2022/03/14 12:23:21;;;;;;;;;;;;;;;;;;5076935;28;19924;-76
2022/03/14 12:25:48;;;;;;;;;;;;;;;;;;5062653;28;21222;-77
2022/03/14 12:28:32;;;;;;;;;;;;;;;;;;5071814;28;19917;-76
2022/03/14 12:31:03;;;;;;;;;;;;;;;;;;5055550;28;20248;-76
2022/03/14 12:33:35;;;;;;;;;;;;;;;;;;5068140;28;19925;-76
2022/03/14 12:36:19;;;;;;;;;;;;;;;;;;5087843;28;19924;-76
2022/03/14 12:39:06;;;;;;;;;;;;;;;;;;5055998;28;20064;-78
2022/03/14 12:41:32;;;;;;;;;;;;;;;;;;5070773;28;20457;-77
2022/03/14 12:43:58;;;;;;;;;;;;;;;;;;5054758;28;19947;-76
2022/03/14 12:46:24;;;;;;;;;;;;;;;;;;5043932;28;20343;-75
2022/03/14 12:48:51;;;;;;;;;;;;;;;;;;5053109;28;20461;-76
2022/03/14 12:51:24;;;;;;;;;;;;;;;;;;5043841;28;19920;-76
2022/03/14 12:53:50;;;;;;;;;;;;;;;;;;5027810;28;19925;-75
2022/03/14 12:56:24;;;;;;;;;;;;;;;;;;5045016;28;19924;-76
2022/03/14 12:58:55;;;;;;;;;;;;;;;;;;5047496;28;19935;-76
2022/03/14 13:01:21;;;;;;;;;;;;;;;;;;5043040;28;20308;-76
2022/03/14 13:03:47;;;;;;;;;;;;;;;;;;5041554;28;19920;-76
2022/03/14 13:06:13;;;;;;;;;;;;;;;;;;4975872;28;20021;-75
2022/03/14 13:08:48;;;;;;;;;;;;;;;;;;4984622;28;20021;-76
2022/03/14 13:11:17;;;;;;;;;;;;;;;;;;4983580;28;20025;-78
2022/03/14 13:13:44;;;;;;;;;;;;;;;;;;4986130;28;20180;-77
2022/03/14 13:16:22;;;;;;;;;;;;;;;;;;5001382;28;20373;-76
2022/03/14 13:18:48;;;;;;;;;;;;;;;;;;5013970;28;20393;-79
2022/03/14 13:21:17;;;;;;;;;;;;;;;;;;4984265;28;19941;-77
2022/03/14 13:23:44;;;;;;;;;;;;;;;;;;4985123;28;19944;-76
2022/03/14 13:26:11;;;;;;;;;;;;;;;;;;5010136;28;19918;-75
2022/03/14 13:28:37;;;;;;;;;;;;;;;;;;5000634;28;19922;-77
2022/03/14 13:31:11;;;;;;;;;;;;;;;;;;4984868;28;19933;-79
2022/03/14 13:33:42;;;;;;;;;;;;;;;;;;5013393;28;20012;-76
2022/03/14 13:36:11;;;;;;;;;;;;;;;;;;4999147;28;19949;-76
2022/03/14 13:38:46;;;;;;;;;;;;;;;;;;4979917;28;20096;-76
2022/03/14 13:41:18;;;;;;;;;;;;;;;;;;4978519;28;20085;-75
2022/03/14 13:43:47;;;;;;;;;;;;;;;;;;5015693;28;19929;-75
2022/03/14 13:46:29;;;;;;;;;;;;;;;;;;4997715;28;19926;-75
2022/03/14 13:49:00;;;;;;;;;;;;;;;;;;5011959;28;19918;-76
2022/03/14 13:51:37;;;;;;;;;;;;;;;;;;4980711;28;19957;-75
2022/03/14 13:54:05;;;;;;;;;;;;;;;;;;5013469;28;19928;-74
2022/03/14 13:56:35;;;;;;;;;;;;;;;;;;4982565;28;20378;-76
2022/03/14 13:59:02;;;;;;;;;;;;;;;;;;5001290;28;20337;-75
2022/03/14 14:01:57;;;;;;;;;;;;;;;;;;4999624;28;19918;-76
2022/03/14 14:04:24;;;;;;;;;;;;;;;;;;4985163;28;19932;-76
2022/03/14 14:06:51;;;;;;;;;;;;;;;;;;5014820;28;19926;-75
2022/03/14 14:09:23;;;;;;;;;;;;;;;;;;4998207;28;19933;-75
2022/03/14 14:12:14;;;;;;;;;;;;;;;;;;5012599;28;21242;-78
2022/03/14 14:14:40;;;;;;;;;;;;;;;;;;5004415;28;20070;-78
2022/03/14 14:17:10;;;;;;;;;;;;;;;;;;4984525;28;20341;-75
2022/03/14 14:19:36;;;;;;;;;;;;;;;;;;4999596;28;19925;-77
2022/03/14 14:22:03;;;;;;;;;;;;;;;;;;5008861;28;19932;-78
2022/03/14 14:24:29;;;;;;;;;;;;;;;;;;5000010;28;20524;-76
2022/03/14 14:26:54;;;;;;;;;;;;;;;;;;4986469;28;19926;-75
2022/03/14 14:29:52;;;;;;;;;;;;;;;;;;4985563;28;19926;-77
2022/03/14 14:32:19;;;;;;;;;;;;;;;;;;4987359;28;20000;-76
2022/03/14 14:34:45;;;;;;;;;;;;;;;;;;5014175;28;19956;-77
2022/03/14 14:37:11;;;;;;;;;;;;;;;;;;4986190;28;19921;-76
2022/03/14 14:39:37;;;;;;;;;;;;;;;;;;4984770;28;19976;-78
2022/03/14 14:42:08;;;;;;;;;;;;;;;;;;4986143;28;19925;-75
2022/03/14 14:44:34;;;;;;;;;;;;;;;;;;4985327;28;20314;-77
2022/03/14 14:47:00;;;;;;;;;;;;;;;;;;4986231;28;19925;-77
2022/03/14 14:49:26;;;;;;;;;;;;;;;;;;4984090;28;20701;-76
2022/03/14 14:51:52;;;;;;;;;;;;;;;;;;4979435;28;20288;-75
2022/03/14 14:54:18;;;;;;;;;;;;;;;;;;4983889;28;19961;-76
2022/03/14 14:56:44;;;;;;;;;;;;;;;;;;4993110;28;19951;-76
2022/03/14 14:59:15;;;;;;;;;;;;;;;;;;5001774;28;20349;-77
2022/03/14 15:01:41;;;;;;;;;;;;;;;;;;5032451;28;21687;-76
2022/03/14 15:04:07;;;;;;;;;;;;;;;;;;5030325;28;20103;-75
2022/03/14 15:06:34;;;;;;;;;;;;;;;;;;5032786;28;19917;-75
2022/03/14 15:09:00;;;;;;;;;;;;;;;;;;5008625;28;19996;-75
2022/03/14 15:11:26;;;;;;;;;;;;;;;;;;5013471;28;20353;-75
2022/03/14 15:13:52;;;;;;;;;;;;;;;;;;5028681;28;19925;-75
2022/03/14 15:16:17;;;;;;;;;;;;;;;;;;5001083;28;20368;-75
2022/03/14 15:18:44;;;;;;;;;;;;;;;;;;5000144;28;19921;-76
2022/03/14 15:21:10;;;;;;;;;;;;;;;;;;4996999;28;20381;-77
2022/03/14 15:23:36;;;;;;;;;;;;;;;;;;5029410;28;19924;-77
2022/03/14 15:26:01;;;;;;;;;;;;;;;;;;5001688;28;19933;-77
2022/03/14 15:28:28;;;;;;;;;;;;;;;;;;5000629;28;19995;-76
2022/03/14 15:30:55;;;;;;;;;;;;;;;;;;5027286;28;19928;-78
2022/03/14 15:33:22;;;;;;;;;;;;;;;;;;4996112;28;19925;-78
2022/03/14 15:35:48;;;;;;;;;;;;;;;;;;5011920;28;20052;-75
2022/03/14 15:38:14;;;;;;;;;;;;;;;;;;4999236;28;19941;-78
2022/03/14 15:40:40;;;;;;;;;;;;;;;;;;4998955;28;19929;-76
2022/03/14 15:43:06;;;;;;;;;;;;;;;;;;5028101;28;19925;-76
2022/03/14 15:45:31;;;;;;;;;;;;;;;;;;5002100;28;19935;-77
2022/03/14 15:47:57;;;;;;;;;;;;;;;;;;5030371;28;20289;-75
2022/03/14 15:50:23;;;;;;;;;;;;;;;;;;5001416;28;19926;-75
2022/03/14 15:52:49;;;;;;;;;;;;;;;;;;4997687;28;19933;-75
2022/03/14 15:55:14;;;;;;;;;;;;;;;;;;5028798;28;19921;-76
2022/03/14 15:57:42;;;;;;;;;;;;;;;;;;4997959;28;20368;-78
2022/03/14 16:00:10;;;;;;;;;;;;;;;;;;4999383;28;21587;-78
2022/03/14 16:02:37;;;;;;;;;;;;;;;;;;4996594;28;19925;-77
2022/03/14 16:05:02;;;;;;;;;;;;;;;;;;5034722;28;20298;-75
2022/03/14 16:07:29;;;;;;;;;;;;;;;;;;5022218;28;20012;-76
2022/03/14 16:09:56;;;;;;;;;;;;;;;;;;5024733;28;19922;-76
2022/03/14 16:12:21;;;;;;;;;;;;;;;;;;5008352;28;19975;-76
2022/03/14 16:14:47;;;;;;;;;;;;;;;;;;5003786;28;20257;-76
2022/03/14 16:17:12;;;;;;;;;;;;;;;;;;5041671;28;19921;-76
2022/03/14 16:19:38;;;;;;;;;;;;;;;;;;5008713;28;19956;-76
2022/03/14 16:22:03;;;;;;;;;;;;;;;;;;5025340;28;20289;-77
2022/03/14 16:24:28;;;;;;;;;;;;;;;;;;5014498;28;19922;-75
2022/03/14 16:26:54;;;;;;;;;;;;;;;;;;5019960;28;19945;-75
2022/03/14 16:29:19;;;;;;;;;;;;;;;;;;5029228;28;19913;-77
2022/03/14 16:31:50;;;;;;;;;;;;;;;;;;5014066;28;19917;-75
2022/03/14 16:34:15;;;;;;;;;;;;;;;;;;5021569;28;19925;-75
2022/03/14 16:36:42;;;;;;;;;;;;;;;;;;5028416;28;20060;-75
2022/03/14 16:39:07;;;;;;;;;;;;;;;;;;5028083;28;19921;-75
2022/03/14 16:41:34;;;;;;;;;;;;;;;;;;5044615;28;19921;-75
2022/03/14 16:44:00;;;;;;;;;;;;;;;;;;5021591;28;19918;-75
2022/03/14 16:46:26;;;;;;;;;;;;;;;;;;5028855;28;20293;-76